createdAt,value
2022-12-23T00:00:44.039Z,3.22
2022-12-23T00:03:11.236Z,3.40
2022-12-23T00:05:41.175Z,3.22
2022-12-23T00:08:08.486Z,3.35
2022-12-23T00:10:38.631Z,3.28
2022-12-23T00:13:24.281Z,3.30
2022-12-23T00:15:51.047Z,3.75
2022-12-23T00:18:17.782Z,3.70
2022-12-23T00:20:44.526Z,3.28
2022-12-23T00:23:11.216Z,2.70
2022-12-23T00:25:43.766Z,3.67
2022-12-23T00:28:19.158Z,3.03
2022-12-23T00:30:55.705Z,3.00
2022-12-23T00:33:35.712Z,2.90
2022-12-23T00:36:19.614Z,2.95
2022-12-23T00:39:05.851Z,2.90
2022-12-23T00:41:51.488Z,3.05
2022-12-23T00:44:18.527Z,2.88
2022-12-23T00:46:45.298Z,2.92
2022-12-23T00:49:33.157Z,3.20
2022-12-23T00:52:00.239Z,3.08
2022-12-23T00:54:27.521Z,3.03
2022-12-23T00:56:54.254Z,3.00
2022-12-23T00:59:21.172Z,3.33
2022-12-23T01:02:06.472Z,2.75
2022-12-23T01:04:52.365Z,3.03
2022-12-23T01:07:19.681Z,3.10
2022-12-23T01:09:46.494Z,3.00
2022-12-23T01:12:13.367Z,3.20
2022-12-23T01:14:40.220Z,3.63
2022-12-23T01:17:07.959Z,3.63
2022-12-23T01:19:35.018Z,3.35
2022-12-23T01:22:01.809Z,4.00
2022-12-23T01:24:30.653Z,4.25
2022-12-23T01:26:57.647Z,3.60
2022-12-23T01:29:25.117Z,4.25
2022-12-23T01:31:52.043Z,4.45
2022-12-23T01:34:18.842Z,3.75
2022-12-23T01:36:45.536Z,4.30
2022-12-23T01:39:12.369Z,4.38
2022-12-23T01:41:57.452Z,4.38
2022-12-23T01:45:17.182Z,3.75
2022-12-23T01:48:01.898Z,3.70
2022-12-23T01:50:34.193Z,4.15
2022-12-23T01:53:11.588Z,4.50
2022-12-23T01:56:13.107Z,4.30
2022-12-23T01:58:45.116Z,4.70
2022-12-23T02:04:06.942Z,4.65
2022-12-23T02:06:59.187Z,4.30
2022-12-23T02:09:30.834Z,5.00
2022-12-23T02:12:18.665Z,5.07
2022-12-23T02:15:28.258Z,5.30
2022-12-23T02:18:24.798Z,5.30
2022-12-23T02:21:20.084Z,5.18
2022-12-23T02:24:26.631Z,5.63
2022-12-23T02:27:17.287Z,5.75
2022-12-23T02:30:14.828Z,5.55
2022-12-23T02:33:11.637Z,6.07
2022-12-23T02:35:57.423Z,6.05
2022-12-23T02:38:48.397Z,6.13
2022-12-23T02:41:44.121Z,5.47
2022-12-23T02:44:52.021Z,5.53
2022-12-23T02:47:27.999Z,6.03
2022-12-23T02:50:06.614Z,6.35
2022-12-23T02:52:35.778Z,6.18
2022-12-23T02:55:10.354Z,5.82
2022-12-23T02:57:41.322Z,5.95
2022-12-23T03:00:10.572Z,6.13
2022-12-23T03:02:40.156Z,7.30
2022-12-23T03:05:25.274Z,7.07
2022-12-23T03:07:59.568Z,6.70
2022-12-23T03:11:07.679Z,7.13
2022-12-23T03:13:46.173Z,7.50
2022-12-23T03:16:24.289Z,6.55
2022-12-23T03:19:24.105Z,6.70
2022-12-23T03:22:18.673Z,6.75
2022-12-23T03:24:54.856Z,6.03
2022-12-23T03:27:41.179Z,6.35
2022-12-23T03:30:10.935Z,5.93
2022-12-23T03:32:49.770Z,6.10
2022-12-23T03:35:21.722Z,5.45
2022-12-23T03:37:52.228Z,5.63
2022-12-23T03:40:27.257Z,5.97
2022-12-23T03:43:01.517Z,5.53
2022-12-23T03:45:41.695Z,6.00
2022-12-23T03:48:36.885Z,5.57
2022-12-23T03:51:13.407Z,6.22
2022-12-23T03:54:00.615Z,5.50
2022-12-23T03:56:44.131Z,4.72
2022-12-23T03:59:24.336Z,4.75
2022-12-23T04:02:25.152Z,4.97
2022-12-23T04:05:21.091Z,4.75
2022-12-23T04:08:04.741Z,4.65
2022-12-23T04:10:31.800Z,4.75
2022-12-23T04:12:58.607Z,4.20
2022-12-23T04:15:27.458Z,4.60
2022-12-23T04:17:56.339Z,4.05
2022-12-23T04:20:23.427Z,5.35
2022-12-23T04:22:50.447Z,4.18
2022-12-23T04:25:18.487Z,4.05
2022-12-23T04:27:45.210Z,3.97
2022-12-23T04:30:16.055Z,3.97
2022-12-23T04:32:43.190Z,3.88
2022-12-23T04:35:11.059Z,4.45
2022-12-23T04:37:38.748Z,4.70
2022-12-23T04:40:07.409Z,4.10
2022-12-23T04:42:34.563Z,3.78
2022-12-23T04:45:01.596Z,3.80
2022-12-23T04:47:28.349Z,3.70
2022-12-23T04:49:55.054Z,3.50
2022-12-23T04:52:22.282Z,3.50
2022-12-23T04:54:49.248Z,3.80
2022-12-23T04:57:16.600Z,4.38
2022-12-23T04:59:43.364Z,3.45
2022-12-23T05:02:10.492Z,3.53
2022-12-23T05:04:37.576Z,3.42
2022-12-23T05:07:04.385Z,3.58
2022-12-23T05:09:31.153Z,3.70
2022-12-23T05:11:57.869Z,3.83
2022-12-23T05:14:24.600Z,4.07
2022-12-23T05:16:51.491Z,4.22
2022-12-23T05:19:18.269Z,4.00
2022-12-23T05:21:45.043Z,4.10
2022-12-23T05:24:11.971Z,3.97
2022-12-23T05:26:38.667Z,5.05
2022-12-23T05:29:06.070Z,4.40
2022-12-23T05:31:33.260Z,5.15
2022-12-23T05:34:06.068Z,5.28
2022-12-23T05:36:33.548Z,4.88
2022-12-23T05:39:00.268Z,5.25
2022-12-23T06:01:40.677Z,5.22
2022-12-23T06:04:07.566Z,5.10
2022-12-23T06:06:34.541Z,4.63
2022-12-23T06:09:01.262Z,4.88
2022-12-23T06:11:28.451Z,4.50
2022-12-23T06:13:55.253Z,5.35
2022-12-23T06:16:22.175Z,4.85
2022-12-23T06:18:49.007Z,4.95
2022-12-23T06:21:15.727Z,4.78
2022-12-23T06:23:42.472Z,4.90
2022-12-23T06:26:09.246Z,5.47
2022-12-23T06:28:35.947Z,5.53
2022-12-23T06:31:02.678Z,5.63
2022-12-23T06:33:29.387Z,5.35
2022-12-23T06:35:56.195Z,5.70
2022-12-23T06:38:23.101Z,5.55
2022-12-23T06:40:49.878Z,5.35
2022-12-23T06:43:16.953Z,5.57
2022-12-23T06:45:48.140Z,5.20
2022-12-23T06:48:16.095Z,5.63
2022-12-23T06:50:43.398Z,5.43
2022-12-23T06:53:10.492Z,5.88
2022-12-23T06:55:37.220Z,5.85
2022-12-23T06:58:04.723Z,6.68
2022-12-23T07:00:31.607Z,5.78
2022-12-23T07:02:58.392Z,7.10
2022-12-23T07:05:25.162Z,6.93
2022-12-23T07:07:51.897Z,5.93
2022-12-23T07:10:18.623Z,6.97
2022-12-23T07:12:50.474Z,6.38
2022-12-23T07:15:17.743Z,6.68
2022-12-23T07:17:44.463Z,7.22
2022-12-23T07:20:13.355Z,6.70
2022-12-23T07:22:40.046Z,6.72
2022-12-23T07:25:07.829Z,6.95
2022-12-23T07:27:34.523Z,6.57
2022-12-23T07:30:01.235Z,6.18
2022-12-23T07:32:27.952Z,6.68
2022-12-23T07:34:54.645Z,6.85
2022-12-23T07:37:21.360Z,6.20
2022-12-23T07:39:48.087Z,5.90
2022-12-23T07:45:01.698Z,5.68
2022-12-23T07:47:28.426Z,4.93
2022-12-23T07:49:55.154Z,5.82
2022-12-23T07:52:22.823Z,6.15
2022-12-23T07:54:49.538Z,6.05
2022-12-23T07:57:16.246Z,5.30
2022-12-23T07:59:42.961Z,5.38
2022-12-23T08:02:11.317Z,5.53
2022-12-23T08:04:44.130Z,5.72
2022-12-23T08:07:12.640Z,5.30
2022-12-23T08:09:39.334Z,5.20
2022-12-23T08:12:06.423Z,5.40
2022-12-23T08:14:33.172Z,5.00
2022-12-23T08:17:00.000Z,5.03
2022-12-23T08:19:26.824Z,5.63
2022-12-23T08:21:53.572Z,5.38
2022-12-23T08:24:20.288Z,5.30
2022-12-23T08:26:47.031Z,5.20
2022-12-23T08:29:13.740Z,5.30
2022-12-23T08:31:40.520Z,5.22
2022-12-23T08:34:07.221Z,5.78
2022-12-23T08:36:35.529Z,4.90
2022-12-23T08:39:07.491Z,5.43
2022-12-23T08:41:40.891Z,4.82
2022-12-23T08:44:07.856Z,5.50
2022-12-23T08:46:35.329Z,5.20
2022-12-23T08:49:02.593Z,5.65
2022-12-23T08:51:29.584Z,5.28
2022-12-23T08:54:01.121Z,5.28
2022-12-23T08:56:32.990Z,6.03
2022-12-23T08:59:00.549Z,6.18
2022-12-23T09:01:30.689Z,5.50
2022-12-23T09:03:57.986Z,6.72
2022-12-23T09:06:30.029Z,6.40
2022-12-23T09:08:58.299Z,6.05
2022-12-23T09:11:27.807Z,6.72
2022-12-23T09:13:55.894Z,6.05
2022-12-23T09:16:23.639Z,6.00
2022-12-23T09:18:50.587Z,6.20
2022-12-23T09:21:23.310Z,5.75
2022-12-23T09:23:50.886Z,6.00
2022-12-23T09:26:27.998Z,5.90
2022-12-23T09:28:55.766Z,5.80
2022-12-23T09:31:24.043Z,6.07
2022-12-23T09:33:53.330Z,5.60
2022-12-23T09:36:21.384Z,5.90
2022-12-23T09:38:53.702Z,6.40
2022-12-23T09:41:52.393Z,6.43
2022-12-23T09:44:44.473Z,6.07
2022-12-23T09:47:17.466Z,5.68
2022-12-23T09:49:54.808Z,6.57
2022-12-23T09:52:37.690Z,9.30
2022-12-23T09:55:09.294Z,6.97
2022-12-23T09:57:51.206Z,5.90
2022-12-23T10:00:20.126Z,6.28
2022-12-23T10:03:08.417Z,6.50
2022-12-23T10:05:56.213Z,5.82
2022-12-23T10:08:38.019Z,5.82
2022-12-23T10:11:22.015Z,5.68
2022-12-23T10:14:04.575Z,5.75
2022-12-23T10:16:40.277Z,4.95
2022-12-23T10:19:41.573Z,5.07
2022-12-23T10:22:27.158Z,5.38
2022-12-23T10:24:57.646Z,8.85
2022-12-23T10:27:41.999Z,21.10
2022-12-23T10:30:51.441Z,37.90
2022-12-23T10:33:22.811Z,7.93
2022-12-23T10:36:07.626Z,5.88
2022-12-23T10:39:05.846Z,5.90
2022-12-23T10:41:38.273Z,5.65
2022-12-23T10:44:41.173Z,5.22
2022-12-23T10:47:45.041Z,4.63
2022-12-23T10:50:30.505Z,4.68
2022-12-23T10:53:01.100Z,4.18
2022-12-23T10:55:35.061Z,3.85
2022-12-23T10:58:18.206Z,4.03
2022-12-23T11:00:58.501Z,4.50
2022-12-23T11:03:38.186Z,3.70
2022-12-23T11:06:08.298Z,4.00
2022-12-23T11:08:38.031Z,4.45
2022-12-23T11:11:05.642Z,4.85
2022-12-23T11:13:32.239Z,4.63
2022-12-23T11:16:11.831Z,5.10
2022-12-23T11:18:42.047Z,6.53
2022-12-23T11:21:14.699Z,9.73
2022-12-23T11:23:41.409Z,7.53
2022-12-23T11:26:12.838Z,6.60
2022-12-23T11:28:52.920Z,6.03
2022-12-23T11:31:35.418Z,5.60
2022-12-23T11:34:14.920Z,5.95
2022-12-23T11:36:42.497Z,5.63
2022-12-23T11:39:12.113Z,5.47
2022-12-23T11:41:51.137Z,4.88
2022-12-23T11:44:30.598Z,4.93
2022-12-23T11:46:57.804Z,5.22
2022-12-23T11:49:28.391Z,4.97
2022-12-23T11:52:11.361Z,5.13
2022-12-23T11:54:39.403Z,5.38
2022-12-23T11:57:15.342Z,4.82
2022-12-23T11:59:51.536Z,5.47
2022-12-23T12:02:30.129Z,4.82
2022-12-23T12:05:06.095Z,4.93
2022-12-23T12:07:33.518Z,4.65
2022-12-23T12:10:01.704Z,5.55
2022-12-23T12:12:29.705Z,5.45
2022-12-23T12:15:00.390Z,5.18
2022-12-23T12:17:53.235Z,4.85
2022-12-23T12:20:25.706Z,6.63
2022-12-23T12:23:06.976Z,6.65
2022-12-23T12:25:53.633Z,5.93
2022-12-23T12:28:39.043Z,5.82
2022-12-23T12:31:24.658Z,5.57
2022-12-23T12:34:04.970Z,5.03
2022-12-23T12:37:14.152Z,5.25
2022-12-23T12:39:54.359Z,5.18
2022-12-23T12:42:40.886Z,4.55
2022-12-23T12:45:24.260Z,4.47
2022-12-23T12:48:13.057Z,4.28
2022-12-23T12:51:15.852Z,3.53
2022-12-23T12:54:14.670Z,4.00
2022-12-23T12:56:53.308Z,4.13
2022-12-23T12:59:25.897Z,3.55
2022-12-23T13:02:26.551Z,4.30
2022-12-23T13:05:29.136Z,3.65
2022-12-23T13:11:32.164Z,4.43
2022-12-23T13:14:13.068Z,3.38
2022-12-23T13:17:17.176Z,3.53
2022-12-23T13:20:16.558Z,3.58
2022-12-23T13:22:45.787Z,2.85
2022-12-23T13:25:22.290Z,2.80
2022-12-23T13:27:58.091Z,2.90
2022-12-23T13:30:32.125Z,2.50
2022-12-23T13:33:07.880Z,2.50
2022-12-23T13:36:09.300Z,2.13
2022-12-23T13:39:20.791Z,2.08
2022-12-23T13:41:51.938Z,2.15
2022-12-23T13:44:20.780Z,2.85
2022-12-23T13:47:42.053Z,2.00
2022-12-23T13:50:23.973Z,2.10
2022-12-23T13:53:25.322Z,1.90
2022-12-23T13:56:09.914Z,1.70
2022-12-23T13:58:39.094Z,2.30
2022-12-23T14:01:08.795Z,2.35
2022-12-23T14:03:38.706Z,1.88
2022-12-23T14:06:23.558Z,1.60
2022-12-23T14:08:52.536Z,1.85
2022-12-23T14:11:26.451Z,2.30
2022-12-23T14:14:04.279Z,2.13
2022-12-23T14:17:05.220Z,2.10
2022-12-23T14:20:18.633Z,2.38
2022-12-23T14:23:23.596Z,2.25
2022-12-23T14:26:07.300Z,2.00
2022-12-23T14:28:40.198Z,2.42
2022-12-23T14:31:40.463Z,2.13
2022-12-23T14:34:19.943Z,1.98
2022-12-23T14:37:20.882Z,2.22
2022-12-23T14:39:49.518Z,1.65
2022-12-23T14:42:42.508Z,2.10
2022-12-23T14:45:42.680Z,1.42
2022-12-23T14:48:34.335Z,1.80
2022-12-23T14:51:10.961Z,2.42
2022-12-23T14:53:57.523Z,2.03
2022-12-23T14:56:39.399Z,1.80
2022-12-23T14:59:31.846Z,1.75
2022-12-23T15:02:04.264Z,2.20
2022-12-23T15:04:55.965Z,1.95
2022-12-23T15:07:31.767Z,1.85
2022-12-23T15:10:06.822Z,1.73
2022-12-23T15:12:41.121Z,1.98
2022-12-23T15:15:29.805Z,1.52
2022-12-23T15:18:04.939Z,1.40
2022-12-23T15:20:33.934Z,1.58
2022-12-23T15:23:02.119Z,1.52
2022-12-23T15:25:35.071Z,1.30
2022-12-23T15:28:03.533Z,1.35
2022-12-23T15:30:47.354Z,1.20
2022-12-23T15:34:00.614Z,1.70
2022-12-23T15:36:10.429Z,1.23
2022-12-23T15:38:38.952Z,1.05
2022-12-23T15:41:15.532Z,1.10
2022-12-23T15:43:43.781Z,0.95
2022-12-23T15:46:29.301Z,0.80
2022-12-23T15:48:57.670Z,1.13
2022-12-23T15:52:05.856Z,0.85
2022-12-23T15:54:36.663Z,1.27
2022-12-23T15:57:05.585Z,0.80
2022-12-23T15:59:37.545Z,1.00
2022-12-23T16:05:28.762Z,1.95
2022-12-23T16:08:13.800Z,1.25
2022-12-23T16:10:41.440Z,1.20
2022-12-23T16:13:20.107Z,1.13
2022-12-23T16:15:47.744Z,1.00
2022-12-23T16:18:24.130Z,1.25
2022-12-23T16:21:02.427Z,1.38
2022-12-23T16:23:36.198Z,1.02
2022-12-23T16:26:04.074Z,1.38
2022-12-23T16:28:50.501Z,1.13
2022-12-23T16:31:20.346Z,1.17
2022-12-23T16:34:00.937Z,1.27
2022-12-23T16:36:27.616Z,1.10
2022-12-23T16:39:22.140Z,1.33
2022-12-23T16:41:49.988Z,1.40
2022-12-23T16:44:17.142Z,1.23
2022-12-23T16:46:47.590Z,1.30
2022-12-23T16:49:19.025Z,1.27
2022-12-23T16:51:46.563Z,1.65
2022-12-23T16:54:17.748Z,1.40
2022-12-23T16:56:46.756Z,1.42
2022-12-23T16:59:14.390Z,1.58
2022-12-23T17:01:45.729Z,1.40
2022-12-23T17:04:12.853Z,1.42
2022-12-23T17:06:40.619Z,2.05
2022-12-23T17:09:08.150Z,1.92
2022-12-23T17:11:47.812Z,1.63
2022-12-23T17:14:22.209Z,1.25
2022-12-23T17:16:49.801Z,1.52
2022-12-23T17:19:23.371Z,1.83
2022-12-23T17:22:00.227Z,1.63
2022-12-23T17:24:27.323Z,1.88
2022-12-23T17:26:56.604Z,1.40
2022-12-23T17:29:23.863Z,1.88
2022-12-23T17:31:51.158Z,2.03
2022-12-23T17:34:21.005Z,2.03
2022-12-23T17:36:50.651Z,1.92
2022-12-23T17:39:19.177Z,1.98
2022-12-23T17:41:45.999Z,1.73
2022-12-23T17:44:16.077Z,2.10
2022-12-23T17:46:43.090Z,1.85
2022-12-23T17:49:09.829Z,2.33
2022-12-23T17:51:39.033Z,2.15
2022-12-23T17:54:06.421Z,2.35
2022-12-23T17:56:33.212Z,1.98
2022-12-23T17:58:59.926Z,2.47
2022-12-23T18:01:32.096Z,2.15
2022-12-23T18:03:59.975Z,3.00
2022-12-23T18:06:28.861Z,2.20
2022-12-23T18:08:59.301Z,2.13
2022-12-23T18:11:44.697Z,2.20
2022-12-23T18:14:27.731Z,3.17
2022-12-23T18:16:54.591Z,2.35
2022-12-23T18:19:21.425Z,2.13
2022-12-23T18:21:48.891Z,2.35
2022-12-23T18:24:15.974Z,3.05
2022-12-23T18:26:42.935Z,2.95
2022-12-23T18:29:09.690Z,2.60
2022-12-23T18:31:37.381Z,3.17
2022-12-23T18:34:04.550Z,3.58
2022-12-23T18:36:33.803Z,2.90
2022-12-23T18:39:00.901Z,3.65
2022-12-23T18:41:28.075Z,2.63
2022-12-23T18:43:55.319Z,4.13
2022-12-23T18:46:22.542Z,2.78
2022-12-23T18:48:49.449Z,4.25
2022-12-23T18:51:19.310Z,3.08
2022-12-23T18:53:47.751Z,4.57
2022-12-23T18:56:20.915Z,4.22
2022-12-23T18:58:48.158Z,3.42
2022-12-23T19:01:17.394Z,3.60
2022-12-23T19:03:46.119Z,3.40
2022-12-23T19:06:14.962Z,3.95
2022-12-23T19:08:43.254Z,3.45
2022-12-23T19:11:16.456Z,3.45
2022-12-23T19:13:43.236Z,3.28
2022-12-23T19:16:16.076Z,2.90
2022-12-23T19:18:43.487Z,3.05
2022-12-23T19:21:10.315Z,2.97
2022-12-23T19:23:39.399Z,3.17
2022-12-23T19:26:06.229Z,2.75
2022-12-23T19:28:36.047Z,2.83
2022-12-23T19:31:12.274Z,3.20
2022-12-23T19:33:40.557Z,3.38
2022-12-23T19:36:22.824Z,3.40
2022-12-23T19:38:50.273Z,3.05
2022-12-23T19:41:18.030Z,2.90
2022-12-23T19:43:46.781Z,2.70
2022-12-23T19:46:15.518Z,3.80
2022-12-23T19:48:42.925Z,3.40
2022-12-23T19:51:12.976Z,3.80
2022-12-23T19:53:41.298Z,3.33
2022-12-23T19:56:11.192Z,3.53
2022-12-23T19:58:40.565Z,3.95
2022-12-23T20:01:13.195Z,3.88
2022-12-23T20:03:41.531Z,3.53
2022-12-23T20:06:17.249Z,4.18
2022-12-23T20:08:44.036Z,4.53
2022-12-23T20:11:16.715Z,3.55
2022-12-23T20:13:44.545Z,4.65
2022-12-23T20:16:12.020Z,3.22
2022-12-23T20:18:39.367Z,4.15
2022-12-23T20:21:06.892Z,4.25
2022-12-23T20:23:34.525Z,4.53
2022-12-23T20:26:01.493Z,4.22
2022-12-23T20:28:29.043Z,4.20
2022-12-23T20:31:05.842Z,4.15
2022-12-23T20:33:33.007Z,3.97
2022-12-23T20:35:59.953Z,4.05
2022-12-23T20:38:26.734Z,4.75
2022-12-23T20:40:53.464Z,4.10
2022-12-23T20:43:20.244Z,4.40
2022-12-23T20:45:46.922Z,5.20
2022-12-23T20:48:13.628Z,4.38
2022-12-23T20:50:42.292Z,4.22
2022-12-23T20:53:10.416Z,3.95
2022-12-23T20:55:37.114Z,3.72
2022-12-23T20:58:23.770Z,4.35
2022-12-23T21:00:50.815Z,3.70
2022-12-23T21:03:17.743Z,3.80
2022-12-23T21:05:44.581Z,4.35
2022-12-23T21:08:11.581Z,4.22
2022-12-23T21:10:39.340Z,3.67
2022-12-23T21:13:06.258Z,4.50
2022-12-23T21:15:33.993Z,4.63
2022-12-23T21:18:00.926Z,4.55
2022-12-23T21:20:27.675Z,4.55
2022-12-23T21:22:54.397Z,4.03
2022-12-23T21:25:22.115Z,4.03
2022-12-23T21:27:52.954Z,4.60
2022-12-23T21:30:19.698Z,4.18
2022-12-23T21:32:46.420Z,3.83
2022-12-23T21:35:13.226Z,3.67
2022-12-23T21:37:39.920Z,4.45
2022-12-23T21:40:08.182Z,4.40
2022-12-23T21:42:34.879Z,4.15
2022-12-23T21:45:01.812Z,3.42
2022-12-23T21:47:28.509Z,3.50
2022-12-23T21:49:55.201Z,3.72
2022-12-23T21:52:21.917Z,3.97
2022-12-23T21:54:48.627Z,3.88
2022-12-23T21:57:15.363Z,4.93
2022-12-23T21:59:42.089Z,4.13
2022-12-23T22:02:16.307Z,4.15
2022-12-23T22:04:43.137Z,4.05
2022-12-23T22:07:09.889Z,3.90
2022-12-23T22:09:36.601Z,3.80
2022-12-23T22:12:05.039Z,3.97
2022-12-23T22:14:31.774Z,4.80
2022-12-23T22:16:58.529Z,3.58
2022-12-23T22:19:25.624Z,3.83
2022-12-23T22:21:52.463Z,4.45
2022-12-23T22:24:19.294Z,3.42
2022-12-23T22:26:46.010Z,3.22
2022-12-23T22:29:12.723Z,3.80
2022-12-23T22:31:50.530Z,2.83
2022-12-23T22:34:20.437Z,3.80
2022-12-23T22:36:48.423Z,4.20
2022-12-23T22:39:21.001Z,4.47
2022-12-23T22:41:50.227Z,3.55
2022-12-23T22:44:17.372Z,3.63
2022-12-23T22:46:44.087Z,4.57
2022-12-23T22:49:13.001Z,4.20
2022-12-23T22:51:41.485Z,4.22
2022-12-23T22:54:08.849Z,3.42
2022-12-23T22:56:35.790Z,4.20
2022-12-23T22:59:02.608Z,4.32
2022-12-23T23:01:32.971Z,4.82
2022-12-23T23:04:02.760Z,4.10
2022-12-23T23:06:33.041Z,4.38
2022-12-23T23:09:00.524Z,4.50
2022-12-23T23:11:28.505Z,3.55
2022-12-23T23:13:56.372Z,3.70
2022-12-23T23:16:24.587Z,3.95
2022-12-23T23:18:52.662Z,3.97
2022-12-23T23:21:19.826Z,3.53
2022-12-23T23:23:46.690Z,3.83
2022-12-23T23:26:14.040Z,3.85
2022-12-23T23:28:41.183Z,3.75
2022-12-23T23:31:40.362Z,3.20
2022-12-23T23:33:57.695Z,4.32
2022-12-23T23:36:24.697Z,4.32
2022-12-23T23:38:51.457Z,4.20
2022-12-23T23:41:22.988Z,3.60
2022-12-23T23:43:51.839Z,3.78
2022-12-23T23:46:19.477Z,3.95
2022-12-23T23:48:46.333Z,3.85
2022-12-23T23:51:13.082Z,4.97
2022-12-23T23:53:40.134Z,4.82
2022-12-23T23:56:08.179Z,3.47
2022-12-23T23:58:36.349Z,4.55
